Time;durP1;ratioP1;P1;durP2;ratioP2;P2;SDS_P1;SDS_P2;PMS_P1;PMS_P2;Temp;Humidity;BMP_temperature;BMP_pressure;BME280_temperature;BME280_humidity;BME280_pressure;Samples;Min_cycle;Max_cycle;Signal;HPM_P1;HPM_P2
2022/09/06 00:00:36;;;;;;;10.47;7.30;;;;;;;18.80;100.00;102141.41;2080615;28;20431;-63
2022/09/06 00:01:37;;;;;;;9.27;7.10;;;;;;;18.83;100.00;102142.50;2080629;28;20188;-63
2022/09/06 00:02:38;;;;;;;13.60;7.47;;;;;;;18.81;100.00;102142.97;2079425;28;20439;-63
2022/09/06 00:03:39;;;;;;;14.20;7.87;;;;;;;18.81;100.00;102145.78;2080123;28;20187;-63
2022/09/06 00:04:40;;;;;;;12.57;7.57;;;;;;;18.82;100.00;102141.72;2080033;28;20809;-63
2022/09/06 00:05:42;;;;;;;15.40;8.50;;;;;;;17.86;100.00;101988.13;2080637;28;20417;-63
2022/09/06 00:06:43;;;;;;;14.90;7.77;;;;;;;18.83;100.00;102142.50;2080287;28;20569;-63
2022/09/06 00:07:43;;;;;;;11.03;7.40;;;;;;;18.82;100.00;102136.09;2079555;28;20439;-63
2022/09/06 00:08:44;;;;;;;10.00;7.60;;;;;;;18.81;100.00;102136.56;2079259;28;20189;-63
2022/09/06 00:09:45;;;;;;;10.17;7.43;;;;;;;18.78;100.00;102137.47;2080474;28;20190;-62
2022/09/06 00:10:46;;;;;;;9.30;7.60;;;;;;;18.77;100.00;102130.28;2080432;28;20460;-63
2022/09/06 00:11:46;;;;;;;9.47;7.33;;;;;;;18.78;100.00;102132.63;2080057;28;20186;-63
2022/09/06 00:12:47;;;;;;;10.87;7.70;;;;;;;18.76;100.00;102129.50;2080177;28;20207;-63
2022/09/06 00:13:47;;;;;;;10.07;7.27;;;;;;;18.10;100.00;102025.81;2080351;28;20204;-64
2022/09/06 00:14:48;;;;;;;12.37;8.37;;;;;;;18.74;100.00;102126.38;2080426;28;20187;-63
2022/09/06 00:15:48;;;;;;;9.00;7.50;;;;;;;17.76;100.00;101977.25;2080170;28;20189;-64
2022/09/06 00:16:49;;;;;;;11.70;7.70;;;;;;;18.75;100.00;102127.13;2078873;28;20185;-63
2022/09/06 00:17:50;;;;;;;13.60;7.20;;;;;;;18.73;100.00;102132.44;2080284;28;20192;-63
2022/09/06 00:18:54;;;;;;;10.87;7.30;;;;;;;18.72;100.00;102130.88;2079646;28;20573;-63
2022/09/06 00:19:54;;;;;;;11.90;7.97;;;;;;;18.62;100.00;102123.56;2079053;28;20842;-63
2022/09/06 00:20:55;;;;;;;9.33;7.73;;;;;;;18.56;100.00;102114.94;2080470;28;20449;-63
2022/09/06 00:21:55;;;;;;;9.37;7.20;;;;;;;18.61;100.00;102131.19;2079106;28;20286;-63
2022/09/06 00:23:04;;;;;;;14.17;6.97;;;;;;;18.55;100.00;102123.78;2080814;28;20753;-63
2022/09/06 00:24:05;;;;;;;9.10;7.00;;;;;;;18.39;100.00;102110.69;2080916;28;20173;-63
2022/09/06 00:25:06;;;;;;;11.80;6.87;;;;;;;17.93;100.00;102049.63;2079568;28;20447;-62
2022/09/06 00:26:07;;;;;;;10.70;7.10;;;;;;;18.41;100.00;102138.28;2080001;28;20268;-63
2022/09/06 00:27:08;;;;;;;8.97;6.70;;;;;;;18.35;100.00;102131.66;2079840;28;20435;-63
2022/09/06 00:28:08;;;;;;;9.47;6.90;;;;;;;18.01;100.00;102076.19;2080207;28;20677;-63
2022/09/06 00:29:08;;;;;;;9.90;6.90;;;;;;;17.63;100.00;102013.72;2080056;28;20200;-63
2022/09/06 00:30:10;;;;;;;8.80;7.30;;;;;;;18.33;100.00;102122.91;2080057;28;20218;-63
2022/09/06 00:31:19;;;;;;;13.17;7.07;;;;;;;18.32;100.00;102126.94;2079953;28;20554;-63
2022/09/06 00:32:19;;;;;;;9.57;7.13;;;;;;;18.29;100.00;102134.22;2080029;28;20447;-63
2022/09/06 00:33:20;;;;;;;8.83;7.43;;;;;;;18.26;100.00;102125.94;2079994;28;21470;-64
2022/09/06 00:34:20;;;;;;;8.73;7.47;;;;;;;18.27;100.00;102130.31;2080699;28;21617;-63
2022/09/06 00:35:23;;;;;;;10.60;7.57;;;;;;;18.27;100.00;102133.09;2079740;28;20208;-63
2022/09/06 00:36:24;;;;;;;9.93;6.63;;;;;;;18.27;100.00;102128.25;2077883;28;20192;-62
2022/09/06 00:37:24;;;;;;;9.13;6.80;;;;;;;18.27;100.00;102129.06;2079604;28;21073;-64
2022/09/06 00:38:24;;;;;;;10.27;6.90;;;;;;;18.28;100.00;102135.47;2087692;28;20230;-63
2022/09/06 00:39:25;;;;;;;14.23;7.00;;;;;;;18.29;100.00;102128.63;2079913;28;20577;-63
2022/09/06 00:40:28;;;;;;;8.67;6.70;;;;;;;18.31;100.00;102117.72;2080291;28;20230;-64
2022/09/06 00:41:28;;;;;;;9.13;6.20;;;;;;;18.28;100.00;102127.06;2079745;28;20184;-63
2022/09/06 00:42:29;;;;;;;12.77;6.53;;;;;;;17.52;100.00;101997.22;2080590;28;20468;-63
2022/09/06 00:43:29;;;;;;;9.30;6.70;;;;;;;18.37;100.00;102120.78;2079772;28;20185;-63
2022/09/06 00:44:30;;;;;;;10.97;7.17;;;;;;;18.36;100.00;102124.81;2079707;28;20184;-64
2022/09/06 00:45:31;;;;;;;10.13;7.03;;;;;;;18.38;100.00;102120.31;2079766;28;20191;-63
2022/09/06 00:46:32;;;;;;;9.03;6.57;;;;;;;18.41;100.00;102121.44;2079493;28;20190;-63
2022/09/06 00:47:36;;;;;;;8.93;6.80;;;;;;;18.43;100.00;102121.78;2079695;28;20921;-63
2022/09/06 00:48:38;;;;;;;9.07;6.80;;;;;;;17.85;100.00;102027.84;2079460;28;20443;-63
2022/09/06 00:49:48;;;;;;;8.87;7.37;;;;;;;18.47;100.00;102122.47;2080021;28;20423;-63
2022/09/06 00:50:52;;;;;;;10.67;7.03;;;;;;;18.47;100.00;102117.63;2079115;28;20491;-63
2022/09/06 00:52:02;;;;;;;8.20;6.57;;;;;;;18.47;100.00;102119.66;2079087;28;20424;-63
2022/09/06 00:53:03;;;;;;;7.80;6.60;;;;;;;18.50;100.00;102124.34;2080031;28;20869;-63
2022/09/06 00:54:06;;;;;;;7.33;6.13;;;;;;;18.50;100.00;102127.16;2079531;28;20423;-63
2022/09/06 00:55:07;;;;;;;10.20;6.57;;;;;;;18.47;100.00;102117.63;2079527;28;20192;-63
2022/09/06 00:56:08;;;;;;;7.57;6.77;;;;;;;18.45;100.00;102127.72;2079607;28;20435;-63
2022/09/06 00:57:09;;;;;;;8.60;6.97;;;;;;;18.43;100.00;102124.59;2079693;28;20522;-62
2022/09/06 00:58:10;;;;;;;11.20;6.60;;;;;;;18.38;100.00;102119.56;2080100;28;20504;-63
2022/09/06 00:59:11;;;;;;;8.77;6.70;;;;;;;18.37;100.00;102126.41;2079644;28;20439;-63
2022/09/06 01:00:12;;;;;;;8.47;6.53;;;;;;;18.37;100.00;102118.75;2079519;28;20662;-63
2022/09/06 01:01:12;;;;;;;12.43;7.17;;;;;;;18.31;100.00;102120.53;2079764;28;20192;-63
2022/09/06 01:02:13;;;;;;;12.40;6.80;;;;;;;18.29;100.00;102126.59;2079438;28;20434;-63
2022/09/06 01:03:13;;;;;;;13.23;7.53;;;;;;;18.29;100.00;102123.00;2079945;28;20211;-63
2022/09/06 01:04:14;;;;;;;15.57;7.07;;;;;;;18.28;100.00;102121.44;2080661;28;20184;-63
2022/09/06 01:05:15;;;;;;;12.40;7.07;;;;;;;17.67;100.00;102037.59;2077929;28;20573;-63
2022/09/06 01:06:16;;;;;;;10.50;6.87;;;;;;;18.24;100.00;102129.94;2079735;28;20230;-63
2022/09/06 01:07:25;;;;;;;9.23;6.83;;;;;;;18.26;100.00;102123.13;2079401;28;20444;-62
2022/09/06 01:09:16;;;;;;;10.30;6.80;;;;;;;18.26;100.00;102123.91;2079757;28;20184;-63
2022/09/06 01:10:25;;;;;;;7.87;6.20;;;;;;;18.27;100.00;102128.25;2065066;28;20484;-63
2022/09/06 01:11:34;;;;;;;11.27;6.87;;;;;;;18.27;100.00;102123.44;2077126;28;20430;-63
2022/09/06 01:12:54;;;;;;;10.77;6.83;;;;;;;17.56;100.00;102013.91;2079003;28;20522;-64
2022/09/06 01:14:36;;;;;;;10.87;6.40;;;;;;;18.26;100.00;102123.13;2078998;28;20424;-63
2022/09/06 01:15:39;;;;;;;9.77;6.70;;;;;;;18.24;100.00;102127.16;2078069;28;20585;-63
2022/09/06 01:17:09;;;;;;;9.10;7.13;;;;;;;18.23;100.00;102126.81;2078288;28;20952;-63
2022/09/06 01:18:26;;;;;;;12.50;7.03;;;;;;;18.22;100.00;102122.44;2078874;28;20472;-63
2022/09/06 01:20:08;;;;;;;10.00;7.00;;;;;;;18.17;100.00;102123.78;2078740;28;20807;-63
2022/09/06 01:21:28;;;;;;;15.93;8.27;;;;;;;18.17;100.00;102112.56;2078987;28;20449;-63
2022/09/06 01:22:56;;;;;;;13.03;7.60;;;;;;;18.14;100.00;102125.47;2078788;28;20492;-63
2022/09/06 01:24:08;;;;;;;11.53;6.83;;;;;;;18.17;100.00;102131.44;2078763;28;20420;-63
2022/09/06 01:25:40;;;;;;;10.13;6.70;;;;;;;18.18;100.00;102123.34;2078298;28;20423;-64
2022/09/06 01:27:13;;;;;;;8.07;6.53;;;;;;;18.22;100.00;102125.25;2079533;28;20486;-63
2022/09/06 01:28:36;;;;;;;8.33;6.90;;;;;;;18.22;100.00;102128.81;2079443;28;20439;-63
2022/09/06 01:29:51;;;;;;;7.90;6.37;;;;;;;18.24;100.00;102129.94;2080078;28;20423;-63
2022/09/06 01:31:24;;;;;;;8.00;6.40;;;;;;;18.22;100.00;102120.41;2079354;28;20524;-63
2022/09/06 01:32:42;;;;;;;7.27;5.80;;;;;;;18.32;100.00;102129.75;2072039;28;21245;-63
2022/09/06 01:34:04;;;;;;;7.50;6.40;;;;;;;18.34;100.00;102128.09;2079027;28;20476;-63
2022/09/06 01:35:43;;;;;;;10.37;6.30;;;;;;;18.35;100.00;102132.47;2079090;28;20876;-63
2022/09/06 01:36:56;;;;;;;8.70;6.53;;;;;;;18.13;100.00;102101.44;2079189;28;20419;-63
2022/09/06 01:37:58;;;;;;;8.93;6.00;;;;;;;18.39;100.00;102127.53;2079327;28;20420;-64
2022/09/06 01:38:58;;;;;;;9.73;6.53;;;;;;;17.67;100.00;102011.59;2079472;28;20434;-62
2022/09/06 01:39:58;;;;;;;9.20;6.47;;;;;;;18.42;100.00;102125.84;2079945;28;20428;-63
2022/09/06 01:40:59;;;;;;;7.67;6.37;;;;;;;17.97;100.00;102061.50;2080211;28;20208;-63
2022/09/06 01:42:09;;;;;;;9.13;6.77;;;;;;;18.44;100.00;102141.00;2079901;28;20227;-63
2022/09/06 01:43:12;;;;;;;10.00;7.10;;;;;;;18.32;100.00;102108.09;2080170;28;20203;-63
2022/09/06 01:44:12;;;;;;;9.33;7.20;;;;;;;18.29;100.00;102103.38;2079847;28;20454;-63
2022/09/06 01:45:19;;;;;;;10.17;7.53;;;;;;;18.44;100.00;102124.16;2078273;28;20453;-63
2022/09/06 01:46:20;;;;;;;13.50;7.43;;;;;;;18.45;100.00;102122.91;2077965;28;20196;-63
2022/09/06 01:47:31;;;;;;;10.03;7.40;;;;;;;17.97;100.00;102047.47;2078860;28;20442;-63
2022/09/06 01:48:53;;;;;;;14.23;7.20;;;;;;;18.44;100.00;102112.94;2079311;28;20193;-62
2022/09/06 01:50:22;;;;;;;12.27;6.57;;;;;;;18.40;100.00;102106.63;2078532;28;20806;-63
2022/09/06 01:52:09;;;;;;;11.13;6.30;;;;;;;18.35;100.00;102112.03;2079830;28;20424;-63
2022/09/06 01:53:28;;;;;;;10.20;6.60;;;;;;;18.34;100.00;102113.25;2073713;28;21037;-63
2022/09/06 01:54:50;;;;;;;9.67;7.47;;;;;;;18.31;100.00;102114.16;2079499;28;20481;-63
2022/09/06 01:55:56;;;;;;;10.67;8.13;;;;;;;18.27;100.00;102108.63;2079439;28;20449;-63
2022/09/06 01:57:15;;;;;;;10.30;7.90;;;;;;;18.26;100.00;102104.25;2079491;28;20797;-62
2022/09/06 01:58:39;;;;;;;12.10;7.97;;;;;;;18.26;100.00;102114.72;2079803;28;20503;-63
2022/09/06 02:00:07;;;;;;;18.00;8.67;;;;;;;18.28;100.00;102119.41;2079050;28;21310;-63
2022/09/06 02:01:40;;;;;;;13.13;7.57;;;;;;;18.29;100.00;102114.59;2079493;28;20439;-63
2022/09/06 02:02:51;;;;;;;11.03;7.90;;;;;;;18.28;100.00;102125.00;2080036;28;20859;-63
2022/09/06 02:04:09;;;;;;;9.03;6.93;;;;;;;18.28;100.00;102115.84;2079683;28;20527;-62
2022/09/06 02:05:27;;;;;;;11.33;7.27;;;;;;;18.32;100.00;102124.13;2079319;28;20411;-63
2022/09/06 02:06:35;;;;;;;10.53;7.40;;;;;;;18.31;100.00;102119.75;2078893;28;20922;-63
2022/09/06 02:07:37;;;;;;;10.23;7.70;;;;;;;18.29;100.00;102120.97;2078866;28;20423;-63
2022/09/06 02:08:42;;;;;;;10.10;6.93;;;;;;;18.29;100.00;102118.16;2080170;28;20431;-63
2022/09/06 02:09:45;;;;;;;18.67;7.93;;;;;;;18.31;100.00;102114.91;2079769;28;20777;-63
2022/09/06 02:10:56;;;;;;;14.07;7.10;;;;;;;18.01;100.00;102084.59;2079821;28;20562;-63
2022/09/06 02:11:59;;;;;;;11.03;7.20;;;;;;;18.33;100.00;102111.69;2079614;28;20455;-64
2022/09/06 02:13:03;;;;;;;11.63;7.70;;;;;;;18.34;100.00;102113.25;2079532;28;20432;-63
2022/09/06 02:14:15;;;;;;;11.10;7.33;;;;;;;18.34;100.00;102114.06;2079221;28;20766;-63
2022/09/06 02:15:25;;;;;;;15.80;7.53;;;;;;;18.36;100.00;102116.38;2078746;28;20439;-63
2022/09/06 02:16:29;;;;;;;11.90;7.03;;;;;;;18.07;100.00;102068.78;2078205;28;20956;-63
2022/09/06 02:17:33;;;;;;;11.73;7.50;;;;;;;18.36;100.00;102117.19;2079180;28;20446;-63
2022/09/06 02:18:40;;;;;;;11.27;7.33;;;;;;;18.39;100.00;102115.50;2079439;28;20444;-63
2022/09/06 02:19:48;;;;;;;9.57;7.23;;;;;;;18.41;100.00;102113.03;2079636;28;20497;-63
2022/09/06 02:20:53;;;;;;;10.33;7.20;;;;;;;18.35;100.00;102110.00;2079006;28;20446;-63
2022/09/06 02:21:56;;;;;;;12.67;8.20;;;;;;;18.32;100.00;102115.72;2079536;28;20956;-63
2022/09/06 02:23:04;;;;;;;12.37;8.07;;;;;;;18.32;100.00;102112.91;2079656;28;20451;-62
2022/09/06 02:24:08;;;;;;;10.63;7.33;;;;;;;18.03;100.00;102085.72;2079224;28;20443;-63
2022/09/06 02:25:14;;;;;;;18.33;8.30;;;;;;;18.37;100.00;102115.94;2078585;28;20455;-63
2022/09/06 02:26:25;;;;;;;14.93;8.10;;;;;;;18.39;100.00;102116.31;2079054;28;20431;-63
2022/09/06 02:27:26;;;;;;;13.37;7.57;;;;;;;18.39;100.00;102118.31;2078703;28;20486;-63
2022/09/06 02:28:27;;;;;;;12.83;7.30;;;;;;;18.40;100.00;102114.25;2078731;28;20427;-63
2022/09/06 02:29:28;;;;;;;15.63;7.80;;;;;;;18.35;100.00;102115.63;2078751;28;21011;-63
2022/09/06 02:30:28;;;;;;;14.80;7.13;;;;;;;18.37;100.00;102112.38;2080063;28;20173;-63
2022/09/06 02:31:34;;;;;;;10.10;7.10;;;;;;;18.40;100.00;102119.88;2079409;28;20283;-63
2022/09/06 02:32:42;;;;;;;10.37;6.73;;;;;;;18.41;100.00;102119.44;2079689;28;20251;-63
2022/09/06 02:33:45;;;;;;;9.40;7.20;;;;;;;18.44;100.00;102120.56;2079303;28;20833;-62
2022/09/06 02:34:47;;;;;;;10.63;6.70;;;;;;;18.09;100.00;102075.50;2079187;28;20455;-62
2022/09/06 02:35:50;;;;;;;10.10;6.57;;;;;;;18.42;100.00;102117.41;2079201;28;20958;-63
2022/09/06 02:36:51;;;;;;;9.70;6.57;;;;;;;18.44;100.00;102121.34;2078875;28;20428;-63
2022/09/06 02:37:52;;;;;;;11.70;7.23;;;;;;;18.46;100.00;102124.47;2079464;28;20519;-63
2022/09/06 02:38:53;;;;;;;10.97;6.97;;;;;;;18.47;100.00;102114.81;2079309;28;20189;-64
2022/09/06 02:39:54;;;;;;;11.57;7.30;;;;;;;18.45;100.00;102113.69;2079844;28;20252;-63
2022/09/06 02:40:55;;;;;;;10.60;6.80;;;;;;;18.51;100.00;102120.31;2079241;28;20489;-63
2022/09/06 02:41:57;;;;;;;11.23;7.10;;;;;;;18.52;100.00;102119.88;2080051;28;20427;-63
2022/09/06 02:42:58;;;;;;;16.90;7.47;;;;;;;17.90;100.00;102022.47;2079671;28;20518;-63
2022/09/06 02:43:58;;;;;;;10.20;6.90;;;;;;;18.51;100.00;102112.69;2079600;28;20432;-63
2022/09/06 02:44:58;;;;;;;12.13;6.90;;;;;;;18.58;100.00;102120.09;2078264;28;20215;-63
2022/09/06 02:45:59;;;;;;;11.47;6.77;;;;;;;17.66;100.00;101972.78;2080555;28;20184;-63
2022/09/06 02:47:01;;;;;;;10.07;7.23;;;;;;;18.23;100.00;102065.09;2081107;28;20263;-63
2022/09/06 02:48:02;;;;;;;10.23;6.67;;;;;;;18.63;100.00;102123.09;2080938;28;20208;-63
2022/09/06 02:49:03;;;;;;;11.20;7.00;;;;;;;18.64;100.00;102124.69;2080372;28;21010;-62
2022/09/06 02:50:03;;;;;;;11.40;7.10;;;;;;;18.64;100.00;102124.69;2081795;28;20188;-63
2022/09/06 02:51:06;;;;;;;10.63;7.60;;;;;;;18.65;100.00;102128.28;2080444;28;20213;-63
2022/09/06 02:52:06;;;;;;;10.37;7.17;;;;;;;18.60;100.00;102114.81;2081086;28;20193;-64
2022/09/06 02:53:09;;;;;;;11.77;7.30;;;;;;;18.60;100.00;102126.03;2081107;28;20439;-64
2022/09/06 02:54:09;;;;;;;11.90;7.13;;;;;;;18.59;100.00;102127.28;2081278;28;20191;-63
2022/09/06 02:55:10;;;;;;;12.10;7.00;;;;;;;18.54;100.00;102137.06;2080281;28;21043;-63
2022/09/06 02:56:11;;;;;;;10.83;7.13;;;;;;;17.94;100.00;102034.34;2080584;28;20198;-63
2022/09/06 02:57:11;;;;;;;9.83;6.90;;;;;;;18.54;100.00;102130.66;2080821;28;20238;-63
2022/09/06 02:58:12;;;;;;;12.60;7.00;;;;;;;18.53;100.00;102131.88;2081119;28;20248;-63
2022/09/06 02:59:12;;;;;;;10.07;7.00;;;;;;;18.54;100.00;102136.25;2079917;28;20188;-63
2022/09/06 03:00:13;;;;;;;14.90;7.30;;;;;;;18.50;100.00;102125.16;2080694;28;20195;-64
2022/09/06 03:01:13;;;;;;;10.43;6.70;;;;;;;18.49;100.00;102129.19;2081212;28;20189;-63
2022/09/06 03:02:14;;;;;;;12.63;7.13;;;;;;;18.46;100.00;102127.28;2081090;28;20255;-63
2022/09/06 03:03:15;;;;;;;13.50;7.03;;;;;;;18.45;100.00;102127.72;2080787;28;20193;-63
2022/09/06 03:04:15;;;;;;;14.60;7.10;;;;;;;18.46;100.00;102124.47;2080998;28;20211;-63
2022/09/06 03:05:16;;;;;;;12.97;6.60;;;;;;;18.46;100.00;102129.28;2080003;28;20195;-63
2022/09/06 03:06:16;;;;;;;9.03;6.80;;;;;;;18.44;100.00;102126.97;2080818;28;20191;-63
2022/09/06 03:07:17;;;;;;;9.67;7.00;;;;;;;18.39;100.00;102127.53;2081189;28;20189;-64
2022/09/06 03:08:20;;;;;;;12.80;7.13;;;;;;;18.01;100.00;102078.22;2081023;28;20187;-63
2022/09/06 03:09:20;;;;;;;10.17;7.23;;;;;;;18.39;100.00;102133.16;2080774;28;20185;-63
2022/09/06 03:10:23;;;;;;;12.03;7.93;;;;;;;18.37;100.00;102135.59;2080878;28;20508;-63
2022/09/06 03:11:24;;;;;;;12.97;8.13;;;;;;;18.40;100.00;102134.72;2080953;28;20196;-63
2022/09/06 03:12:24;;;;;;;14.50;7.27;;;;;;;18.38;100.00;102137.16;2079977;28;20486;-63
2022/09/06 03:13:26;;;;;;;9.73;7.30;;;;;;;17.58;100.00;102024.69;2080584;28;20189;-63
2022/09/06 03:14:26;;;;;;;12.87;7.40;;;;;;;18.36;100.00;102127.63;2080772;28;20619;-63
2022/09/06 03:15:27;;;;;;;17.03;7.73;;;;;;;18.43;100.00;102138.63;2079987;28;20543;-62
2022/09/06 03:16:27;;;;;;;12.73;7.63;;;;;;;18.39;100.00;102137.97;2080844;28;20231;-63
2022/09/06 03:17:27;;;;;;;16.07;8.00;;;;;;;17.58;100.00;102005.06;2080682;28;20190;-63
2022/09/06 03:18:30;;;;;;;14.53;7.70;;;;;;;18.44;100.00;102132.56;2080166;28;20268;-63
2022/09/06 03:19:30;;;;;;;13.27;7.50;;;;;;;18.45;100.00;102134.16;2079784;28;20199;-63
2022/09/06 03:20:31;;;;;;;16.20;7.77;;;;;;;18.45;100.00;102128.53;2081082;28;20985;-63
2022/09/06 03:21:31;;;;;;;13.93;7.47;;;;;;;18.49;100.00;102136.81;2080430;28;20269;-63
2022/09/06 03:22:32;;;;;;;13.33;7.60;;;;;;;18.51;100.00;102131.53;2080857;28;20181;-63
2022/09/06 03:23:33;;;;;;;11.13;7.63;;;;;;;18.52;100.00;102136.72;2080731;28;20174;-63
2022/09/06 03:24:33;;;;;;;10.03;6.83;;;;;;;18.26;100.00;102089.44;2079913;28;20177;-63
2022/09/06 03:25:34;;;;;;;11.07;7.30;;;;;;;18.55;100.00;102132.22;2080819;28;20246;-63
2022/09/06 03:26:34;;;;;;;10.83;6.97;;;;;;;18.57;100.00;102135.38;2080329;28;20196;-63
2022/09/06 03:27:35;;;;;;;10.63;6.50;;;;;;;18.57;100.00;102129.75;2079525;28;20775;-63
2022/09/06 03:28:36;;;;;;;11.67;7.30;;;;;;;18.56;100.00;102136.59;2080825;28;20199;-62
2022/09/06 03:29:36;;;;;;;11.03;6.97;;;;;;;18.56;100.00;102134.56;2079988;28;20189;-63
2022/09/06 03:30:37;;;;;;;10.00;6.90;;;;;;;18.52;100.00;102124.72;2081189;28;20242;-63
2022/09/06 03:31:38;;;;;;;14.83;10.03;;;;;;;18.61;100.00;102138.81;2079769;28;20178;-63
2022/09/06 03:32:38;;;;;;;17.43;13.37;;;;;;;18.64;100.00;102132.31;2080116;28;20420;-63
2022/09/06 03:33:39;;;;;;;15.40;11.63;;;;;;;17.77;100.00;101993.66;2079968;28;20177;-63
2022/09/06 03:34:40;;;;;;;14.10;9.47;;;;;;;18.63;100.00;102125.13;2071532;28;20704;-63
2022/09/06 03:35:58;;;;;;;11.47;8.33;;;;;;;18.64;100.00;102130.31;2079276;28;20181;-63
2022/09/06 03:36:58;;;;;;;10.10;7.40;;;;;;;17.80;100.00;102008.78;2079062;28;20185;-63
2022/09/06 03:37:59;;;;;;;11.37;7.37;;;;;;;18.65;100.00;102131.88;2080681;28;20424;-64
2022/09/06 03:38:59;;;;;;;9.10;6.90;;;;;;;18.67;100.00;102139.84;2079661;28;20255;-63
2022/09/06 03:40:00;;;;;;;9.97;6.93;;;;;;;18.67;100.00;102131.44;2079862;28;20213;-63
2022/09/06 03:41:00;;;;;;;10.67;6.70;;;;;;;18.68;100.00;102136.56;2080445;28;20193;-63
2022/09/06 03:42:01;;;;;;;10.17;7.13;;;;;;;17.92;100.00;102017.97;2080655;28;20231;-63
2022/09/06 03:43:01;;;;;;;11.13;7.17;;;;;;;18.63;100.00;102128.72;2080579;28;20584;-63
2022/09/06 03:44:02;;;;;;;9.53;6.60;;;;;;;18.65;100.00;102131.88;2081116;28;20272;-63
2022/09/06 03:45:02;;;;;;;10.20;5.90;;;;;;;18.51;100.00;102103.47;2079640;28;20204;-63
2022/09/06 03:46:03;;;;;;;10.87;7.23;;;;;;;18.66;100.00;102133.44;2079694;28;20193;-63
2022/09/06 03:47:04;;;;;;;11.23;6.57;;;;;;;18.66;100.00;102127.81;2080252;28;20188;-63
2022/09/06 03:48:04;;;;;;;11.87;7.03;;;;;;;18.62;100.00;102127.16;2080418;28;20189;-63
2022/09/06 03:49:05;;;;;;;13.13;7.23;;;;;;;17.86;100.00;102002.16;2080271;28;20200;-62
2022/09/06 03:50:06;;;;;;;10.97;7.13;;;;;;;17.99;100.00;102023.34;2079676;28;20243;-63
2022/09/06 03:51:06;;;;;;;12.43;7.67;;;;;;;18.67;100.00;102131.44;2079867;28;20266;-63
2022/09/06 03:52:07;;;;;;;11.17;7.30;;;;;;;18.67;100.00;102129.38;2080650;28;20424;-63
2022/09/06 03:53:07;;;;;;;9.60;7.33;;;;;;;18.63;100.00;102116.72;2080852;28;20659;-64
2022/09/06 03:54:08;;;;;;;12.47;7.13;;;;;;;18.68;100.00;102130.94;2079946;28;20263;-63
2022/09/06 03:55:09;;;;;;;12.87;7.37;;;;;;;18.68;100.00;102130.94;2079911;28;20185;-63
2022/09/06 03:56:09;;;;;;;13.57;7.40;;;;;;;18.67;100.00;102126.59;2080183;28;20195;-63
2022/09/06 03:57:10;;;;;;;13.27;7.00;;;;;;;18.67;100.00;102134.25;2079514;28;20271;-63
2022/09/06 03:58:10;;;;;;;11.63;6.93;;;;;;;18.69;100.00;102134.56;2080040;28;20268;-63
2022/09/06 03:59:11;;;;;;;10.47;6.77;;;;;;;18.61;100.00;102125.59;2079965;28;20759;-63
2022/09/06 04:00:13;;;;;;;10.53;6.53;;;;;;;18.67;100.00;102132.19;2080425;28;20189;-63
2022/09/06 04:01:13;;;;;;;11.50;7.30;;;;;;;18.69;100.00;102140.19;2081117;28;20548;-64
2022/09/06 04:02:13;;;;;;;11.80;6.40;;;;;;;18.71;100.00;102137.69;2079540;28;20517;-63
2022/09/06 04:03:14;;;;;;;8.77;6.77;;;;;;;18.71;100.00;102138.50;2080514;28;20228;-63
2022/09/06 04:04:15;;;;;;;12.57;7.40;;;;;;;17.71;100.00;101980.63;2080556;28;20566;-62
2022/09/06 04:05:16;;;;;;;10.47;6.73;;;;;;;18.72;100.00;102137.25;2079491;28;20283;-63
2022/09/06 04:06:17;;;;;;;11.50;6.70;;;;;;;18.73;100.00;102135.22;2080191;28;20201;-63
2022/09/06 04:07:17;;;;;;;16.17;8.13;;;;;;;18.75;100.00;102138.38;2080141;28;20426;-62
2022/09/06 04:08:17;;;;;;;12.03;6.93;;;;;;;18.73;100.00;102147.22;2079218;28;20685;-63
2022/09/06 04:09:18;;;;;;;13.43;7.20;;;;;;;18.74;100.00;102142.41;2079756;28;20181;-63
2022/09/06 04:10:18;;;;;;;11.30;7.67;;;;;;;18.74;100.00;102137.59;2079785;28;20706;-63
2022/09/06 04:11:19;;;;;;;10.67;6.67;;;;;;;18.75;100.00;102147.59;2079587;28;20188;-63
2022/09/06 04:12:19;;;;;;;12.20;6.67;;;;;;;18.77;100.00;102149.94;2080158;28;20259;-63
2022/09/06 04:13:21;;;;;;;9.70;6.70;;;;;;;18.80;100.00;102152.63;2079557;28;20224;-63
2022/09/06 04:14:22;;;;;;;10.27;6.63;;;;;;;18.82;100.00;102149.34;2080656;28;20319;-63
2022/09/06 04:15:22;;;;;;;8.53;6.40;;;;;;;18.84;100.00;102152.50;2078463;28;20440;-62
2022/09/06 04:16:23;;;;;;;11.53;7.07;;;;;;;18.88;100.00;102151.13;2079948;28;20185;-63
2022/09/06 04:17:23;;;;;;;10.93;6.57;;;;;;;18.88;100.00;102142.72;2080058;28;20185;-63
2022/09/06 04:18:24;;;;;;;15.47;6.47;;;;;;;18.88;100.00;102151.13;2080855;28;20177;-63
2022/09/06 04:19:25;;;;;;;12.37;6.63;;;;;;;18.89;100.00;102147.09;2080136;28;20227;-63
2022/09/06 04:20:25;;;;;;;13.77;6.60;;;;;;;18.91;100.00;102153.06;2080701;28;20267;-62
2022/09/06 04:21:26;;;;;;;12.00;6.83;;;;;;;18.75;100.00;102129.94;2080505;28;20741;-63
2022/09/06 04:22:26;;;;;;;8.97;6.10;;;;;;;18.95;100.00;102148.09;2080474;28;20196;-63
2022/09/06 04:23:28;;;;;;;11.10;6.20;;;;;;;18.95;100.00;102138.88;2080671;28;20197;-63
2022/09/06 04:24:28;;;;;;;9.67;6.17;;;;;;;18.95;100.00;102150.13;2080031;28;20216;-63
2022/09/06 04:25:29;;;;;;;7.20;5.83;;;;;;;18.78;100.00;102118.56;2079726;28;20957;-63
2022/09/06 04:26:29;;;;;;;9.73;6.23;;;;;;;18.94;100.00;102142.94;2080449;28;20237;-63
2022/09/06 04:27:30;;;;;;;11.23;5.93;;;;;;;18.91;100.00;102136.19;2079790;28;20847;-63
2022/09/06 04:28:30;;;;;;;10.93;6.43;;;;;;;18.94;100.00;102145.75;2079171;28;20185;-64
2022/09/06 04:29:31;;;;;;;7.37;5.77;;;;;;;18.94;100.00;102142.94;2080233;28;20260;-63
2022/09/06 04:30:31;;;;;;;9.77;6.43;;;;;;;18.53;100.00;102078.56;2080354;28;20766;-62
2022/09/06 04:31:32;;;;;;;7.07;5.77;;;;;;;18.97;100.00;102142.00;2080420;28;20224;-63
2022/09/06 04:32:32;;;;;;;11.23;6.03;;;;;;;18.96;100.00;102146.88;2079486;28;20407;-63
2022/09/06 04:33:34;;;;;;;9.20;6.23;;;;;;;18.96;100.00;102151.69;2079794;28;20203;-63
2022/09/06 04:34:34;;;;;;;8.83;6.27;;;;;;;18.97;100.00;102145.63;2080525;28;20185;-64
2022/09/06 04:35:36;;;;;;;8.13;6.47;;;;;;;18.91;100.00;102141.81;2079085;28;20450;-63
2022/09/06 04:36:36;;;;;;;8.83;6.40;;;;;;;18.96;100.00;102149.66;2079858;28;20193;-63
2022/09/06 04:37:36;;;;;;;8.73;6.17;;;;;;;18.97;100.00;102150.44;2079960;28;20534;-63
2022/09/06 04:38:43;;;;;;;8.63;6.87;;;;;;;18.85;100.00;102135.22;2080209;28;20193;-63
2022/09/06 04:39:43;;;;;;;10.47;6.90;;;;;;;19.01;100.00;102159.53;2080053;28;20232;-63
2022/09/06 04:40:44;;;;;;;11.07;6.60;;;;;;;18.58;100.00;102098.41;2080379;28;20443;-63
2022/09/06 04:41:44;;;;;;;10.23;6.30;;;;;;;18.97;100.00;102156.06;2079865;28;20189;-63
2022/09/06 04:42:44;;;;;;;11.10;6.80;;;;;;;18.98;100.00;102163.28;2079833;28;20686;-63
2022/09/06 04:43:45;;;;;;;11.87;6.37;;;;;;;19.02;100.00;102161.09;2080582;28;20234;-63
2022/09/06 04:44:45;;;;;;;9.97;6.37;;;;;;;19.05;100.00;102157.41;2079606;28;20205;-63
2022/09/06 04:45:46;;;;;;;9.03;6.13;;;;;;;18.74;100.00;102111.53;2079060;28;20193;-63
2022/09/06 04:46:47;;;;;;;9.50;6.17;;;;;;;19.07;100.00;102154.91;2079924;28;20272;-63
2022/09/06 04:47:49;;;;;;;9.27;6.30;;;;;;;19.07;100.00;102154.91;2079014;28;20193;-63
2022/09/06 04:48:50;;;;;;;7.43;6.07;;;;;;;18.72;100.00;102126.00;2079995;28;20427;-63
2022/09/06 04:49:51;;;;;;;8.47;6.30;;;;;;;19.14;100.00;102157.50;2079138;28;20597;-63
2022/09/06 04:50:51;;;;;;;7.33;6.00;;;;;;;19.13;100.00;102156.69;2079534;28;20456;-63
2022/09/06 04:51:52;;;;;;;19.13;6.67;;;;;;;19.11;100.00;102152.78;2079864;28;20193;-63
2022/09/06 04:52:52;;;;;;;9.63;6.73;;;;;;;19.17;100.00;102153.75;2080548;28;20224;-63
2022/09/06 04:53:53;;;;;;;10.17;5.90;;;;;;;19.17;100.00;102165.00;2079537;28;20195;-63